| time (UTC) | temp F | wind direction | speed MPH | gust MPH | rain 1hr in | rain 24hr in | rain mn in | humidity % | barometer mb |
| 20260831225703 | 81 | 120 | 0.0 | 0.0 | 0.00 | 0.60 | 0.56 | 80 | 1012.7 |
| 20260831225204 | 81 | 120 | 0.0 | 0.0 | 0.00 | 0.61 | 0.56 | 80 | 1012.6 |
| 20260831224704 | 81 | 120 | 0.0 | 0.0 | 0.00 | 0.61 | 0.56 | 81 | 1012.6 |
| 20260831223203 | 81 | 120 | 0.0 | 0.0 | 0.00 | 0.62 | 0.56 | 81 | 1012.5 |
| 20260831222703 | 81 | 120 | 0.0 | 0.0 | 0.00 | 0.62 | 0.56 | 81 | 1012.5 |
| 20260831222203 | 81 | 120 | 0.0 | 0.0 | 0.00 | 0.62 | 0.56 | 83 | 1012.5 |
| 20260831221703 | 81 | 120 | 0.0 | 0.0 | 0.00 | 0.62 | 0.56 | 83 | 1012.6 |
| 20260831221204 | 81 | 120 | 0.0 | 0.0 | 0.01 | 0.62 | 0.56 | 85 | 1012.5 |
| 20260831220704 | 80 | 120 | 0.0 | 0.0 | 0.01 | 0.63 | 0.56 | 86 | 1012.4 |
| 20260831220204 | 80 | 120 | 0.0 | 0.0 | 0.01 | 0.63 | 0.56 | 87 | 1012.3 |
| 20260831215703 | 80 | 120 | 0.0 | 0.0 | 0.01 | 0.63 | 0.56 | 88 | 1012.3 |
| 20260831215204 | 79 | 120 | 0.0 | 0.0 | 0.01 | 0.63 | 0.56 | 89 | 1012.3 |
| 20260831214704 | 79 | 120 | 0.0 | 0.0 | 0.01 | 0.63 | 0.56 | 90 | 1012.2 |
| 20260831213204 | 78 | 120 | 0.0 | 0.0 | 0.04 | 0.63 | 0.56 | 88 | 1012.5 |
| 20260831212703 | 78 | 120 | 0.0 | 0.0 | 0.04 | 0.63 | 0.56 | 89 | 1012.5 |
| 20260831212205 | 78 | 120 | 0.0 | 0.0 | 0.08 | 0.63 | 0.56 | 89 | 1012.4 |
| 20260831211704 | 78 | 120 | 0.0 | 0.0 | 0.12 | 0.63 | 0.56 | 89 | 1012.5 |
| 20260831211204 | 78 | 120 | 0.0 | 0.0 | 0.13 | 0.62 | 0.55 | 88 | 1012.1 |
| 20260831210703 | 78 | 120 | 0.0 | 0.0 | 0.13 | 0.62 | 0.55 | 88 | 1012.4 |
| 20260831210205 | 78 | 120 | 0.0 | 0.0 | 0.13 | 0.62 | 0.55 | 88 | 1012.2 |
| 20260831205704 | 78 | 120 | 0.0 | 0.0 | 0.13 | 0.62 | 0.55 | 89 | 1012.0 |
| 20260831205203 | 77 | 120 | 0.0 | 0.0 | 0.14 | 0.62 | 0.55 | 90 | 1011.5 |
| 20260831204704 | 77 | 120 | 0.0 | 0.0 | 0.14 | 0.62 | 0.55 | 92 | 1011.5 |
| 20260831204204 | 77 | 120 | 0.0 | 0.0 | 0.14 | 0.62 | 0.55 | 92 | 1011.9 |
| 20260831203703 | 77 | 120 | 0.0 | 0.0 | 0.11 | 0.59 | 0.52 | 91 | 1012.1 |
| 20260831203203 | 76 | 120 | 0.0 | 0.0 | 0.12 | 0.59 | 0.52 | 92 | 1012.0 |
| 20260831202204 | 77 | 120 | 0.0 | 0.0 | 0.12 | 0.55 | 0.48 | 90 | 1013.0 |
| 20260831201703 | 77 | 120 | 0.0 | 0.0 | 0.08 | 0.51 | 0.44 | 87 | 1014.0 |
| 20260831201203 | 78 | 120 | 0.0 | 0.0 | 0.06 | 0.49 | 0.42 | 87 | 1013.6 |
| 20260831200203 | 78 | 120 | 0.0 | 0.0 | 0.06 | 0.49 | 0.42 | 85 | 1013.6 |
| 20260831195703 | 78 | 120 | 0.0 | 0.0 | 0.06 | 0.49 | 0.42 | 85 | 1013.3 |
| 20260831194703 | 79 | 120 | 0.0 | 0.0 | 0.05 | 0.48 | 0.41 | 82 | 1012.8 |
| 20260831194203 | 79 | 120 | 0.0 | 0.0 | 0.05 | 0.48 | 0.41 | 80 | 1012.8 |
| 20260831193704 | 79 | 120 | 0.0 | 0.0 | 0.05 | 0.48 | 0.41 | 78 | 1012.8 |
| 20260831193203 | 80 | 120 | 0.0 | 0.0 | 0.04 | 0.47 | 0.40 | 78 | 1012.5 |
| 20260831192703 | 81 | 120 | 0.0 | 0.0 | 0.00 | 0.43 | 0.36 | 74 | 1012.7 |
| 20260831192203 | 81 | 120 | 0.0 | 0.0 | 0.00 | 0.43 | 0.36 | 71 | 1012.9 |
| 20260831191703 | 82 | 120 | 0.0 | 0.0 | 0.00 | 0.43 | 0.36 | 66 | 1013.0 |
| 20260831191204 | 82 | 120 | 0.0 | 0.0 | 0.00 | 0.43 | 0.36 | 66 | 1012.8 |
| 20260831190703 | 82 | 120 | 0.0 | 0.0 | 0.00 | 0.43 | 0.36 | 64 | 1012.8 |
| 20260831190204 | 82 | 120 | 0.0 | 0.0 | 0.00 | 0.43 | 0.36 | 63 | 1013.0 |
| 20260831185704 | 83 | 120 | 0.0 | 0.0 | 0.00 | 0.43 | 0.36 | 62 | 1013.0 |
| 20260831185203 | 83 | 120 | 0.0 | 0.0 | 0.00 | 0.43 | 0.36 | 62 | 1013.0 |
| 20260831184704 | 84 | 120 | 0.0 | 0.0 | 0.00 | 0.43 | 0.36 | 60 | 1013.0 |
| 20260831184204 | 84 | 120 | 0.0 | 0.0 | 0.00 | 0.43 | 0.36 | 60 | 1013.0 |
| 20260831183703 | 85 | 120 | 0.0 | 0.0 | 0.00 | 0.43 | 0.36 | 59 | 1012.8 |
| 20260831183204 | 85 | 120 | 0.0 | 0.0 | 0.00 | 0.43 | 0.36 | 58 | 1012.9 |
| 20260831182704 | 85 | 120 | 0.0 | 0.0 | 0.00 | 0.43 | 0.36 | 58 | 1012.9 |
| 20260831182203 | 86 | 120 | 0.0 | 0.0 | 0.00 | 0.43 | 0.36 | 55 | 1012.9 |
| 20260831181704 | 87 | 120 | 0.0 | 0.0 | 0.00 | 0.43 | 0.36 | 56 | 1012.7 |
| 20260831180703 | 87 | 120 | 0.0 | 0.0 | 0.00 | 0.43 | 0.36 | 56 | 1012.8 |
| 20260831180203 | 87 | 120 | 0.0 | 0.0 | 0.00 | 0.43 | 0.36 | 56 | 1012.9 |
| 20260831175704 | 86 | 120 | 0.0 | 0.0 | 0.00 | 0.43 | 0.36 | 57 | 1012.9 |
| 20260831175203 | 86 | 120 | 0.0 | 0.0 | 0.00 | 0.43 | 0.36 | 54 | 1013.0 |
| 20260831174704 | 85 | 120 | 0.0 | 0.0 | 0.00 | 0.43 | 0.36 | 58 | 1013.0 |
| 20260831174204 | 85 | 120 | 0.0 | 0.0 | 0.00 | 0.43 | 0.36 | 58 | 1013.0 |
| 20260831173704 | 85 | 120 | 0.0 | 0.0 | 0.00 | 0.43 | 0.36 | 56 | 1013.1 |
| 20260831173203 | 84 | 120 | 0.0 | 0.0 | 0.00 | 0.43 | 0.36 | 62 | 1013.1 |
| 20260831172203 | 83 | 120 | 0.0 | 0.0 | 0.00 | 0.43 | 0.36 | 62 | 1013.1 |
| 20260831171704 | 83 | 120 | 0.0 | 0.0 | 0.00 | 0.43 | 0.36 | 64 | 1013.3 |
| 20260831170203 | 82 | 120 | 0.0 | 0.0 | 0.00 | 0.43 | 0.36 | 62 | 1013.6 |
| 20260831165703 | 82 | 120 | 0.0 | 0.0 | 0.00 | 0.43 | 0.36 | 63 | 1013.6 |
| 20260831165203 | 82 | 120 | 0.0 | 0.0 | 0.00 | 0.43 | 0.36 | 63 | 1013.6 |
| 20260831164703 | 82 | 120 | 0.0 | 0.0 | 0.00 | 0.43 | 0.36 | 64 | 1013.7 |
| 20260831164203 | 81 | 120 | 0.0 | 0.0 | 0.00 | 0.43 | 0.36 | 65 | 1013.8 |
| 20260831163703 | 80 | 120 | 0.0 | 0.0 | 0.00 | 0.43 | 0.36 | 69 | 1013.8 |
| 20260831163203 | 79 | 120 | 0.0 | 0.0 | 0.00 | 0.43 | 0.36 | 69 | 1013.8 |
| 20260831162703 | 79 | 120 | 0.0 | 0.0 | 0.00 | 0.43 | 0.36 | 68 | 1013.9 |
| 20260831162204 | 78 | 120 | 0.0 | 0.0 | 0.00 | 0.43 | 0.36 | 70 | 1013.9 |
| 20260831161703 | 79 | 120 | 0.0 | 0.0 | 0.00 | 0.43 | 0.36 | 68 | 1014.0 |
| 20260831161204 | 79 | 120 | 0.0 | 0.0 | 0.00 | 0.43 | 0.36 | 71 | 1014.0 |
| 20260831160704 | 78 | 120 | 0.0 | 0.0 | 0.00 | 0.43 | 0.36 | 72 | 1014.0 |
| 20260831155704 | 77 | 120 | 0.0 | 0.0 | 0.00 | 0.43 | 0.36 | 75 | 1013.9 |
| 20260831155203 | 76 | 120 | 0.0 | 0.0 | 0.00 | 0.43 | 0.36 | 77 | 1013.9 |
| 20260831154705 | 76 | 120 | 0.0 | 0.0 | 0.00 | 0.43 | 0.36 | 77 | 1013.9 |
| 20260831154204 | 76 | 120 | 0.0 | 0.0 | 0.00 | 0.43 | 0.36 | 76 | 1013.9 |
| 20260831153703 | 76 | 120 | 0.0 | 0.0 | 0.00 | 0.43 | 0.36 | 77 | 1013.9 |
| 20260831153203 | 75 | 120 | 0.0 | 0.0 | 0.00 | 0.43 | 0.36 | 81 | 1013.9 |
| 20260831152703 | 74 | 120 | 0.0 | 0.0 | 0.00 | 0.43 | 0.36 | 82 | 1014.0 |
| 20260831151204 | 74 | 120 | 0.0 | 0.0 | 0.00 | 0.43 | 0.36 | 82 | 1014.1 |
| 20260831150703 | 74 | 120 | 0.0 | 0.0 | 0.00 | 0.43 | 0.36 | 82 | 1014.1 |
| 20260831150203 | 74 | 120 | 0.0 | 0.0 | 0.00 | 0.43 | 0.36 | 84 | 1014.2 |
| 20260831145704 | 73 | 120 | 0.0 | 0.0 | 0.00 | 0.43 | 0.36 | 86 | 1014.0 |
| 20260831145204 | 73 | 120 | 0.0 | 0.0 | 0.00 | 0.43 | 0.36 | 86 | 1014.1 |
| 20260831144704 | 73 | 120 | 0.0 | 0.0 | 0.00 | 0.43 | 0.36 | 88 | 1014.1 |
| 20260831144203 | 73 | 120 | 0.0 | 0.0 | 0.00 | 0.43 | 0.36 | 89 | 1014.2 |
| 20260831143703 | 73 | 120 | 0.0 | 0.0 | 0.00 | 0.43 | 0.36 | 89 | 1014.2 |
| 20260831142704 | 72 | 120 | 0.0 | 0.0 | 0.00 | 0.43 | 0.36 | 90 | 1014.0 |
| 20260831142203 | 72 | 120 | 0.0 | 0.0 | 0.00 | 0.43 | 0.36 | 89 | 1014.1 |
| 20260831141703 | 72 | 120 | 0.0 | 0.0 | 0.00 | 0.43 | 0.36 | 89 | 1014.0 |
| 20260831141203 | 72 | 120 | 0.0 | 0.0 | 0.00 | 0.43 | 0.36 | 90 | 1014.0 |
| 20260831140703 | 72 | 120 | 0.0 | 0.0 | 0.01 | 0.43 | 0.36 | 89 | 1014.0 |
| 20260831140203 | 72 | 120 | 0.0 | 0.0 | 0.01 | 0.43 | 0.36 | 90 | 1013.9 |
| 20260831135704 | 71 | 120 | 0.0 | 0.0 | 0.01 | 0.43 | 0.36 | 90 | 1014.0 |
| 20260831134703 | 71 | 120 | 0.0 | 0.0 | 0.01 | 0.43 | 0.36 | 92 | 1014.2 |
| 20260831134204 | 71 | 120 | 0.0 | 0.0 | 0.01 | 0.43 | 0.36 | 92 | 1014.1 |
| 20260831133703 | 71 | 120 | 0.0 | 0.0 | 0.01 | 0.43 | 0.36 | 92 | 1014.2 |
| 20260831133203 | 71 | 120 | 0.0 | 0.0 | 0.01 | 0.43 | 0.36 | 92 | 1014.3 |
| 20260831132704 | 71 | 120 | 0.0 | 0.0 | 0.01 | 0.43 | 0.36 | 92 | 1014.4 |
| 20260831132204 | 71 | 120 | 0.0 | 0.0 | 0.01 | 0.43 | 0.36 | 92 | 1014.4 |
| 20260831131703 | 71 | 120 | 0.0 | 0.0 | 0.01 | 0.43 | 0.36 | 92 | 1014.4 |
| 20260831131204 | 71 | 120 | 0.0 | 0.0 | 0.01 | 0.43 | 0.36 | 93 | 1014.6 |
| 20260831130704 | 71 | 120 | 0.0 | 0.0 | 0.01 | 0.42 | 0.35 | 93 | 1014.5 |
| 20260831130203 | 71 | 120 | 0.0 | 0.0 | 0.01 | 0.42 | 0.35 | 93 | 1014.5 |
| 20260831125704 | 71 | 120 | 0.0 | 0.0 | 0.04 | 0.42 | 0.35 | 93 | 1014.5 |
| 20260831125203 | 71 | 120 | 0.0 | 0.0 | 0.04 | 0.42 | 0.35 | 93 | 1014.5 |
| 20260831124703 | 70 | 120 | 0.0 | 0.0 | 0.05 | 0.42 | 0.35 | 93 | 1014.2 |
| 20260831124203 | 71 | 120 | 0.0 | 0.0 | 0.05 | 0.42 | 0.35 | 94 | 1014.2 |
| 20260831123704 | 70 | 120 | 0.0 | 0.0 | 0.11 | 0.43 | 0.35 | 94 | 1014.3 |
| 20260831123203 | 71 | 120 | 0.0 | 0.0 | 0.12 | 0.47 | 0.35 | 93 | 1014.2 |
| 20260831122703 | 71 | 120 | 0.0 | 0.0 | 0.15 | 0.49 | 0.35 | 93 | 1014.3 |
| 20260831121703 | 70 | 120 | 0.0 | 0.0 | 0.17 | 0.51 | 0.35 | 94 | 1014.0 |
| 20260831121204 | 70 | 120 | 0.0 | 0.0 | 0.30 | 0.51 | 0.35 | 94 | 1014.1 |
| 20260831120703 | 70 | 120 | 0.0 | 0.0 | 0.31 | 0.50 | 0.34 | 94 | 1013.9 |
| 20260831120203 | 70 | 120 | 0.0 | 0.0 | 0.33 | 0.50 | 0.34 | 94 | 1013.9 |
| 20260831115704 | 70 | 120 | 0.0 | 0.0 | 0.31 | 0.48 | 0.31 | 94 | 1014.1 |
| 20260831115204 | 70 | 120 | 0.0 | 0.0 | 0.31 | 0.49 | 0.31 | 94 | 1014.1 |
| 20260831114703 | 71 | 120 | 0.0 | 0.0 | 0.30 | 0.48 | 0.30 | 94 | 1014.1 |
| 20260831114204 | 70 | 120 | 0.0 | 0.0 | 0.30 | 0.48 | 0.30 | 94 | 1014.2 |
| 20260831113704 | 71 | 120 | 0.0 | 0.0 | 0.24 | 0.42 | 0.24 | 93 | 1014.4 |
| 20260831113203 | 71 | 120 | 0.0 | 0.0 | 0.23 | 0.41 | 0.23 | 91 | 1014.5 |
| 20260831112203 | 72 | 120 | 0.0 | 0.0 | 0.20 | 0.38 | 0.20 | 87 | 1014.4 |
| 20260831111704 | 72 | 120 | 0.0 | 0.0 | 0.18 | 0.36 | 0.18 | 85 | 1014.6 |
| 20260831111203 | 73 | 120 | 0.0 | 0.0 | 0.05 | 0.23 | 0.05 | 82 | 1014.6 |
| 20260831110704 | 73 | 120 | 0.0 | 0.0 | 0.03 | 0.21 | 0.03 | 79 | 1014.6 |
| 20260831110203 | 73 | 120 | 0.0 | 0.0 | 0.01 | 0.19 | 0.01 | 78 | 1014.3 |
| 20260831105705 | 73 | 120 | 0.0 | 0.0 | 0.00 | 0.18 | 0.00 | 77 | 1014.1 |
| 20260831105204 | 73 | 120 | 0.0 | 0.0 | 0.00 | 0.18 | 0.00 | 77 | 1014.0 |
| 20260831104703 | 73 | 120 | 0.0 | 0.0 | 0.00 | 0.18 | 0.00 | 78 | 1013.7 |
| 20260831104203 | 74 | 120 | 0.0 | 0.0 | 0.00 | 0.18 | 0.00 | 77 | 1013.4 |
| 20260831103704 | 74 | 120 | 0.0 | 0.0 | 0.00 | 0.18 | 0.00 | 76 | 1013.3 |
| 20260831103203 | 74 | 120 | 0.0 | 0.0 | 0.00 | 0.18 | 0.00 | 74 | 1013.2 |
| 20260831102704 | 74 | 120 | 0.0 | 0.0 | 0.00 | 0.18 | 0.00 | 75 | 1013.2 |
| 20260831102204 | 74 | 120 | 0.0 | 0.0 | 0.00 | 0.18 | 0.00 | 76 | 1013.2 |
| 20260831101704 | 74 | 120 | 0.0 | 0.0 | 0.00 | 0.18 | 0.00 | 75 | 1013.2 |
| 20260831101204 | 74 | 120 | 0.0 | 0.0 | 0.00 | 0.18 | 0.00 | 75 | 1013.0 |
| 20260831094704 | 73 | 120 | 0.0 | 0.0 | 0.00 | 0.18 | 0.00 | 78 | 1013.0 |
| 20260831094203 | 73 | 120 | 0.0 | 0.0 | 0.00 | 0.18 | 0.00 | 78 | 1013.2 |
| 20260831093704 | 73 | 120 | 0.0 | 0.0 | 0.00 | 0.18 | 0.00 | 80 | 1013.2 |
| 20260831093203 | 73 | 120 | 0.0 | 0.0 | 0.00 | 0.18 | 0.00 | 80 | 1013.1 |
| 20260831092703 | 73 | 120 | 0.0 | 0.0 | 0.00 | 0.18 | 0.00 | 81 | 1013.2 |
| 20260831092203 | 73 | 120 | 0.0 | 0.0 | 0.00 | 0.18 | 0.00 | 82 | 1013.2 |
| 20260831091704 | 73 | 120 | 0.0 | 0.0 | 0.00 | 0.18 | 0.00 | 82 | 1013.1 |
| 20260831091204 | 73 | 120 | 0.0 | 0.0 | 0.00 | 0.18 | 0.00 | 83 | 1013.1 |
| 20260831090703 | 73 | 120 | 0.0 | 0.0 | 0.00 | 0.18 | 0.00 | 84 | 1013.1 |
| 20260831090204 | 73 | 120 | 0.0 | 0.0 | 0.00 | 0.18 | 0.00 | 85 | 1013.1 |
| 20260831085204 | 72 | 120 | 0.0 | 0.0 | 0.00 | 0.18 | 0.00 | 87 | 1013.3 |
| 20260831084703 | 72 | 120 | 0.0 | 0.0 | 0.00 | 0.18 | 0.00 | 88 | 1013.3 |
| 20260831084203 | 72 | 120 | 0.0 | 0.0 | 0.00 | 0.18 | 0.00 | 90 | 1013.3 |
| 20260831083204 | 72 | 120 | 0.0 | 0.0 | 0.00 | 0.18 | 0.00 | 92 | 1013.3 |
| 20260831082703 | 72 | 120 | 0.0 | 0.0 | 0.00 | 0.18 | 0.00 | 92 | 1013.4 |
| 20260831081704 | 72 | 120 | 0.0 | 0.0 | 0.00 | 0.18 | 0.00 | 92 | 1013.4 |
| 20260831080703 | 72 | 120 | 0.0 | 0.0 | 0.00 | 0.18 | 0.00 | 92 | 1013.4 |
| 20260831080204 | 72 | 120 | 0.0 | 0.0 | 0.00 | 0.18 | 0.00 | 92 | 1013.4 |
| 20260831075704 | 73 | 120 | 0.0 | 0.0 | 0.00 | 0.18 | 0.00 | 92 | 1013.4 |
| 20260831075203 | 73 | 120 | 0.0 | 0.0 | 0.00 | 0.18 | 0.00 | 92 | 1013.6 |
| 20260831074703 | 73 | 120 | 0.0 | 0.0 | 0.00 | 0.18 | 0.00 | 92 | 1013.6 |
| 20260831074203 | 73 | 120 | 0.0 | 0.0 | 0.00 | 0.18 | 0.00 | 92 | 1013.6 |
| 20260831072704 | 73 | 120 | 0.0 | 0.0 | 0.00 | 0.18 | 0.00 | 93 | 1013.7 |
| 20260831072204 | 73 | 120 | 0.0 | 0.0 | 0.00 | 0.18 | 0.00 | 92 | 1013.8 |
| 20260831071203 | 73 | 120 | 0.0 | 0.0 | 0.00 | 0.18 | 0.00 | 92 | 1013.9 |
| 20260831070203 | 73 | 120 | 0.0 | 0.0 | 0.00 | 0.18 | 0.00 | 91 | 1013.9 |
| 20260831065703 | 73 | 120 | 0.0 | 0.0 | 0.00 | 0.18 | 0.00 | 91 | 1013.9 |
| 20260831065204 | 73 | 120 | 0.0 | 0.0 | 0.00 | 0.18 | 0.00 | 91 | 1013.9 |
| 20260831064203 | 74 | 120 | 0.0 | 0.0 | 0.00 | 0.18 | 0.00 | 89 | 1013.8 |
| 20260831063704 | 74 | 120 | 0.0 | 0.0 | 0.00 | 0.18 | 0.00 | 89 | 1013.8 |
| 20260831063204 | 74 | 120 | 0.0 | 0.0 | 0.00 | 0.18 | 0.00 | 90 | 1013.8 |
| 20260831062703 | 74 | 120 | 0.0 | 0.0 | 0.00 | 0.18 | 0.00 | 89 | 1013.7 |
| 20260831062204 | 74 | 120 | 0.0 | 0.0 | 0.00 | 0.18 | 0.00 | 90 | 1013.7 |
| 20260831061203 | 74 | 120 | 0.0 | 0.0 | 0.00 | 0.18 | 0.00 | 91 | 1013.7 |
| 20260831060703 | 74 | 120 | 0.0 | 0.0 | 0.00 | 0.18 | 0.00 | 91 | 1013.7 |
| 20260831060204 | 74 | 120 | 0.0 | 0.0 | 0.00 | 0.18 | 0.00 | 91 | 1013.7 |
| 20260831055703 | 74 | 120 | 0.0 | 0.0 | 0.00 | 0.18 | 0.00 | 91 | 1013.8 |
| 20260831055203 | 74 | 120 | 0.0 | 0.0 | 0.00 | 0.18 | 0.00 | 91 | 1013.9 |
| 20260831054703 | 74 | 120 | 0.0 | 0.0 | 0.00 | 0.18 | 0.00 | 91 | 1013.9 |
| 20260831054204 | 74 | 120 | 0.0 | 0.0 | 0.00 | 0.18 | 0.00 | 91 | 1013.8 |
| 20260831053703 | 74 | 120 | 0.0 | 0.0 | 0.00 | 0.18 | 0.00 | 92 | 1013.8 |
| 20260831053203 | 74 | 120 | 0.0 | 0.0 | 0.00 | 0.18 | 0.00 | 92 | 1013.8 |
| 20260831052703 | 74 | 120 | 0.0 | 0.0 | 0.00 | 0.18 | 0.00 | 92 | 1013.7 |
| 20260831052203 | 74 | 120 | 0.0 | 0.0 | 0.00 | 0.18 | 0.00 | 92 | 1013.7 |
| 20260831051204 | 74 | 120 | 0.0 | 0.0 | 0.00 | 0.18 | 0.00 | 93 | 1013.9 |
| 20260831050704 | 74 | 120 | 0.0 | 0.0 | 0.00 | 0.18 | 0.00 | 93 | 1013.9 |
| 20260831050203 | 74 | 120 | 0.0 | 0.0 | 0.00 | 0.18 | 0.00 | 93 | 1014.0 |
| 20260831045704 | 74 | 120 | 0.0 | 0.0 | 0.00 | 0.18 | 0.18 | 93 | 1013.8 |
| 20260831045204 | 74 | 120 | 0.0 | 0.0 | 0.00 | 0.18 | 0.18 | 93 | 1013.8 |
| 20260831044703 | 74 | 120 | 0.0 | 0.0 | 0.00 | 0.18 | 0.18 | 93 | 1013.8 |
| 20260831044204 | 74 | 120 | 0.0 | 0.0 | 0.00 | 0.18 | 0.18 | 93 | 1013.8 |
| 20260831043703 | 74 | 120 | 0.0 | 0.0 | 0.00 | 0.18 | 0.18 | 93 | 1013.9 |
| 20260831043203 | 74 | 120 | 0.0 | 0.0 | 0.00 | 0.18 | 0.18 | 93 | 1013.9 |
| 20260831042704 | 74 | 120 | 0.0 | 0.0 | 0.00 | 0.18 | 0.18 | 94 | 1013.9 |
| 20260831042203 | 74 | 120 | 0.0 | 0.0 | 0.00 | 0.18 | 0.18 | 94 | 1014.1 |
| 20260831041703 | 74 | 120 | 0.0 | 0.0 | 0.00 | 0.18 | 0.18 | 93 | 1014.1 |
| 20260831040703 | 74 | 120 | 0.0 | 0.0 | 0.01 | 0.18 | 0.18 | 92 | 1014.2 |
| 20260831040203 | 74 | 120 | 0.0 | 0.0 | 0.02 | 0.18 | 0.18 | 93 | 1014.1 |
| 20260831035703 | 74 | 120 | 0.0 | 0.0 | 0.03 | 0.18 | 0.18 | 93 | 1013.8 |
| 20260831035204 | 74 | 120 | 0.0 | 0.0 | 0.03 | 0.18 | 0.18 | 93 | 1013.8 |
| 20260831034203 | 74 | 120 | 0.0 | 0.0 | 0.03 | 0.18 | 0.18 | 93 | 1013.7 |
| 20260831033703 | 74 | 120 | 0.0 | 0.0 | 0.03 | 0.18 | 0.18 | 93 | 1013.7 |
| 20260831033203 | 74 | 120 | 0.0 | 0.0 | 0.03 | 0.18 | 0.18 | 93 | 1013.9 |
| 20260831032704 | 74 | 120 | 0.0 | 0.0 | 0.03 | 0.18 | 0.18 | 92 | 1014.1 |
| 20260831032204 | 74 | 120 | 0.0 | 0.0 | 0.03 | 0.18 | 0.18 | 92 | 1014.2 |
| 20260831031703 | 74 | 120 | 0.0 | 0.0 | 0.03 | 0.18 | 0.18 | 92 | 1014.3 |
| 20260831031204 | 74 | 120 | 0.0 | 0.0 | 0.03 | 0.18 | 0.18 | 91 | 1014.4 |
| 20260831030703 | 74 | 120 | 0.0 | 0.0 | 0.02 | 0.17 | 0.17 | 91 | 1014.6 |
| 20260831030203 | 74 | 120 | 0.0 | 0.0 | 0.01 | 0.16 | 0.16 | 90 | 1014.7 |
| 20260831025204 | 74 | 120 | 0.0 | 0.0 | 0.00 | 0.15 | 0.15 | 90 | 1014.8 |
| 20260831024703 | 74 | 120 | 0.0 | 0.0 | 0.00 | 0.15 | 0.15 | 90 | 1014.8 |
| 20260831024204 | 74 | 120 | 0.0 | 0.0 | 0.00 | 0.15 | 0.15 | 90 | 1015.0 |
| 20260831023704 | 74 | 120 | 0.0 | 0.0 | 0.00 | 0.15 | 0.15 | 89 | 1015.1 |
| 20260831023203 | 74 | 120 | 0.0 | 0.0 | 0.00 | 0.15 | 0.15 | 90 | 1014.9 |
| 20260831022204 | 74 | 120 | 0.0 | 0.0 | 0.00 | 0.15 | 0.15 | 90 | 1014.9 |
| 20260831021203 | 74 | 120 | 0.0 | 0.0 | 0.00 | 0.15 | 0.15 | 90 | 1014.8 |
| 20260831020703 | 74 | 120 | 0.0 | 0.0 | 0.00 | 0.15 | 0.15 | 90 | 1014.8 |
| 20260831015204 | 74 | 120 | 0.0 | 0.0 | 0.00 | 0.15 | 0.15 | 90 | 1014.8 |
| 20260831014704 | 74 | 120 | 0.0 | 0.0 | 0.00 | 0.15 | 0.15 | 90 | 1014.8 |
| 20260831014203 | 74 | 120 | 0.0 | 0.0 | 0.00 | 0.15 | 0.15 | 90 | 1014.6 |
| 20260831013204 | 74 | 120 | 0.0 | 0.0 | 0.00 | 0.15 | 0.15 | 90 | 1014.7 |
| 20260831012703 | 74 | 120 | 0.0 | 0.0 | 0.00 | 0.15 | 0.15 | 89 | 1014.8 |
| 20260831012204 | 74 | 120 | 0.0 | 0.0 | 0.00 | 0.15 | 0.15 | 89 | 1014.8 |
| 20260831011703 | 74 | 120 | 0.0 | 0.0 | 0.00 | 0.15 | 0.15 | 89 | 1014.7 |
| 20260831010203 | 74 | 120 | 0.0 | 0.0 | 0.00 | 0.15 | 0.15 | 90 | 1014.5 |
| 20260831005704 | 74 | 120 | 0.0 | 0.0 | 0.00 | 0.15 | 0.15 | 90 | 1014.5 |
| 20260831005203 | 74 | 120 | 0.0 | 0.0 | 0.00 | 0.15 | 0.15 | 90 | 1014.5 |
| 20260831004703 | 74 | 120 | 0.0 | 0.0 | 0.00 | 0.15 | 0.15 | 90 | 1014.5 |
| 20260831004204 | 74 | 120 | 0.0 | 0.0 | 0.00 | 0.15 | 0.15 | 90 | 1014.5 |
| 20260831003703 | 74 | 120 | 0.0 | 0.0 | 0.00 | 0.15 | 0.15 | 90 | 1014.4 |
| 20260831002703 | 74 | 120 | 0.0 | 0.0 | 0.00 | 0.15 | 0.15 | 90 | 1014.5 |
| 20260831002203 | 74 | 120 | 0.0 | 0.0 | 0.01 | 0.15 | 0.15 | 90 | 1014.5 |
| 20260831001704 | 74 | 120 | 0.0 | 0.0 | 0.01 | 0.15 | 0.15 | 90 | 1014.6 |
| 20260831001203 | 74 | 120 | 0.0 | 0.0 | 0.01 | 0.15 | 0.15 | 91 | 1014.4 |
| 20260830235704 | 74 | 120 | 0.0 | 0.0 | 0.01 | 0.15 | 0.15 | 91 | 1014.2 |
| 20260830234703 | 74 | 120 | 0.0 | 0.0 | 0.02 | 0.15 | 0.15 | 91 | 1014.1 |
| 20260830234204 | 74 | 120 | 0.0 | 0.0 | 0.02 | 0.15 | 0.15 | 91 | 1014.0 |
| 20260830233703 | 74 | 120 | 0.0 | 0.0 | 0.02 | 0.15 | 0.15 | 90 | 1014.3 |
| 20260830232704 | 74 | 120 | 0.0 | 0.0 | 0.03 | 0.15 | 0.15 | 88 | 1014.6 |
| 20260830232204 | 74 | 120 | 0.0 | 0.0 | 0.02 | 0.14 | 0.14 | 88 | 1014.5 |
| 20260830231704 | 74 | 120 | 0.0 | 0.0 | 0.02 | 0.14 | 0.14 | 88 | 1014.4 |
| 20260830231204 | 74 | 120 | 0.0 | 0.0 | 0.02 | 0.14 | 0.14 | 88 | 1014.4 |
| 20260830230704 | 74 | 120 | 0.0 | 0.0 | 0.03 | 0.14 | 0.14 | 87 | 1014.6 |
| 20260830230204 | 74 | 120 | 0.0 | 0.0 | 0.03 | 0.14 | 0.14 | 87 | 1014.7 |